sensor_id;sensor_type;location;lat;lon;timestamp;temperature;humidity
21489;DHT22;10906;45.194;5.684;2023-06-22T05:02:41;22.00;99.90
21489;DHT22;10906;45.194;5.684;2023-06-22T05:05:26;21.90;99.90
21489;DHT22;10906;45.194;5.684;2023-06-22T05:08:10;21.90;99.90
21489;DHT22;10906;45.194;5.684;2023-06-22T05:10:54;21.90;99.90
21489;DHT22;10906;45.194;5.684;2023-06-22T05:16:25;22.10;99.90
21489;DHT22;10906;45.194;5.684;2023-06-22T05:19:10;22.20;99.90
21489;DHT22;10906;45.194;5.684;2023-06-22T05:21:54;22.30;99.90
21489;DHT22;10906;45.194;5.684;2023-06-22T05:24:38;22.40;99.90
21489;DHT22;10906;45.194;5.684;2023-06-22T05:27:22;22.40;99.90
21489;DHT22;10906;45.194;5.684;2023-06-22T05:30:07;22.40;99.90
21489;DHT22;10906;45.194;5.684;2023-06-22T05:35:37;22.40;99.90
21489;DHT22;10906;45.194;5.684;2023-06-22T05:38:21;22.60;99.90
21489;DHT22;10906;45.194;5.684;2023-06-22T05:41:06;22.50;99.90
21489;DHT22;10906;45.194;5.684;2023-06-22T05:46:43;22.70;99.90
21489;DHT22;10906;45.194;5.684;2023-06-22T05:49:32;22.70;99.90
21489;DHT22;10906;45.194;5.684;2023-06-22T05:52:19;22.60;99.90
21489;DHT22;10906;45.194;5.684;2023-06-22T05:55:04;22.70;99.90
21489;DHT22;10906;45.194;5.684;2023-06-22T06:03:18;22.60;99.90
21489;DHT22;10906;45.194;5.684;2023-06-22T06:11:32;22.70;99.90
21489;DHT22;10906;45.194;5.684;2023-06-22T06:33:36;23.10;99.60
21489;DHT22;10906;45.194;5.684;2023-06-22T06:50:06;23.50;99.90
21489;DHT22;10906;45.194;5.684;2023-06-22T07:12:07;23.00;99.90
21489;DHT22;10906;45.194;5.684;2023-06-22T07:14:52;23.00;99.90
21489;DHT22;10906;45.194;5.684;2023-06-22T07:17:37;22.90;99.90
21489;DHT22;10906;45.194;5.684;2023-06-22T07:20:22;22.90;99.90
21489;DHT22;10906;45.194;5.684;2023-06-22T07:23:06;22.90;99.90
21489;DHT22;10906;45.194;5.684;2023-06-22T07:25:50;22.90;99.90
21489;DHT22;10906;45.194;5.684;2023-06-22T07:28:35;22.90;99.90
21489;DHT22;10906;45.194;5.684;2023-06-22T07:31:23;22.90;99.90
21489;DHT22;10906;45.194;5.684;2023-06-22T07:34:08;22.90;99.90
21489;DHT22;10906;45.194;5.684;2023-06-22T07:36:52;22.80;99.90
21489;DHT22;10906;45.194;5.684;2023-06-22T07:45:07;22.80;99.90
21489;DHT22;10906;45.194;5.684;2023-06-22T07:47:54;22.90;99.90
21489;DHT22;10906;45.194;5.684;2023-06-22T07:50:39;22.90;99.90
21489;DHT22;10906;45.194;5.684;2023-06-22T07:53:23;23.10;99.90
21489;DHT22;10906;45.194;5.684;2023-06-22T07:56:10;23.10;99.90
21489;DHT22;10906;45.194;5.684;2023-06-22T08:04:27;23.20;98.80
21489;DHT22;10906;45.194;5.684;2023-06-22T08:07:12;23.30;99.40
21489;DHT22;10906;45.194;5.684;2023-06-22T08:18:12;23.40;97.50
21489;DHT22;10906;45.194;5.684;2023-06-22T08:29:10;23.50;97.30
21489;DHT22;10906;45.194;5.684;2023-06-22T08:31:54;23.50;97.20
21489;DHT22;10906;45.194;5.684;2023-06-22T08:34:38;23.50;97.50
21489;DHT22;10906;45.194;5.684;2023-06-22T08:37:26;23.50;97.20
21489;DHT22;10906;45.194;5.684;2023-06-22T08:45:43;23.60;96.40
21489;DHT22;10906;45.194;5.684;2023-06-22T08:51:11;23.90;97.40
21489;DHT22;10906;45.194;5.684;2023-06-22T08:59:27;23.80;97.80
21489;DHT22;10906;45.194;5.684;2023-06-22T09:04:57;23.50;98.80
21489;DHT22;10906;45.194;5.684;2023-06-22T09:18:41;23.80;99.90
21489;DHT22;10906;45.194;5.684;2023-06-22T09:32:24;24.10;99.90
21489;DHT22;10906;45.194;5.684;2023-06-22T10:02:40;24.40;99.90
21489;DHT22;10906;45.194;5.684;2023-06-22T10:08:09;24.20;99.90
21489;DHT22;10906;45.194;5.684;2023-06-22T10:16:29;24.20;99.90
21489;DHT22;10906;45.194;5.684;2023-06-22T10:27:28;24.40;99.90
21489;DHT22;10906;45.194;5.684;2023-06-22T10:32:58;24.30;99.90
21489;DHT22;10906;45.194;5.684;2023-06-22T10:38:26;24.40;99.90
21489;DHT22;10906;45.194;5.684;2023-06-22T10:41:10;24.50;99.90
21489;DHT22;10906;45.194;5.684;2023-06-22T10:43:54;24.50;99.90
21489;DHT22;10906;45.194;5.684;2023-06-22T10:46:38;24.50;99.90
21489;DHT22;10906;45.194;5.684;2023-06-22T10:52:08;24.60;99.20
21489;DHT22;10906;45.194;5.684;2023-06-22T11:00:22;24.80;99.10
21489;DHT22;10906;45.194;5.684;2023-06-22T11:03:07;25.00;99.40
21489;DHT22;10906;45.194;5.684;2023-06-22T11:05:51;25.20;99.20
21489;DHT22;10906;45.194;5.684;2023-06-22T11:08:35;25.70;99.20
21489;DHT22;10906;45.194;5.684;2023-06-22T11:11:19;25.70;99.50
21489;DHT22;10906;45.194;5.684;2023-06-22T11:14:04;25.80;98.20
21489;DHT22;10906;45.194;5.684;2023-06-22T11:19:32;25.80;97.90
21489;DHT22;10906;45.194;5.684;2023-06-22T11:25:01;26.00;97.30
21489;DHT22;10906;45.194;5.684;2023-06-22T11:30:30;26.30;97.20
21489;DHT22;10906;45.194;5.684;2023-06-22T11:35:58;25.90;96.90
21489;DHT22;10906;45.194;5.684;2023-06-22T11:38:44;25.90;97.10
21489;DHT22;10906;45.194;5.684;2023-06-22T11:44:13;25.90;96.70
21489;DHT22;10906;45.194;5.684;2023-06-22T11:46:57;25.90;96.90
21489;DHT22;10906;45.194;5.684;2023-06-22T11:49:41;25.80;96.60
21489;DHT22;10906;45.194;5.684;2023-06-22T11:57:57;26.20;96.00
21489;DHT22;10906;45.194;5.684;2023-06-22T12:11:43;26.90;94.20
21489;DHT22;10906;45.194;5.684;2023-06-22T12:19:58;27.10;92.80
21489;DHT22;10906;45.194;5.684;2023-06-22T12:22:43;27.10;93.10
21489;DHT22;10906;45.194;5.684;2023-06-22T12:28:12;27.30;92.10
21489;DHT22;10906;45.194;5.684;2023-06-22T12:30:56;27.30;92.30
21489;DHT22;10906;45.194;5.684;2023-06-22T12:33:40;27.30;92.10
21489;DHT22;10906;45.194;5.684;2023-06-22T12:39:09;27.40;91.10
21489;DHT22;10906;45.194;5.684;2023-06-22T12:41:53;27.60;91.70
21489;DHT22;10906;45.194;5.684;2023-06-22T12:44:40;27.70;91.40
21489;DHT22;10906;45.194;5.684;2023-06-22T12:47:25;27.70;91.40
21489;DHT22;10906;45.194;5.684;2023-06-22T12:50:09;27.70;91.30
21489;DHT22;10906;45.194;5.684;2023-06-22T12:52:54;27.60;91.10
21489;DHT22;10906;45.194;5.684;2023-06-22T12:55:38;27.60;90.90
21489;DHT22;10906;45.194;5.684;2023-06-22T13:01:07;27.30;91.00
21489;DHT22;10906;45.194;5.684;2023-06-22T13:03:52;27.30;91.30
21489;DHT22;10906;45.194;5.684;2023-06-22T13:09:21;27.20;91.10
21489;DHT22;10906;45.194;5.684;2023-06-22T13:12:06;27.20;91.50
21489;DHT22;10906;45.194;5.684;2023-06-22T13:17:35;27.20;91.00
21489;DHT22;10906;45.194;5.684;2023-06-22T13:20:22;27.20;91.40
21489;DHT22;10906;45.194;5.684;2023-06-22T13:23:06;27.30;91.50
21489;DHT22;10906;45.194;5.684;2023-06-22T13:25:50;27.30;91.30
21489;DHT22;10906;45.194;5.684;2023-06-22T13:31:20;27.30;91.10
21489;DHT22;10906;45.194;5.684;2023-06-22T13:34:04;27.20;91.00
21489;DHT22;10906;45.194;5.684;2023-06-22T13:39:33;27.00;90.80
21489;DHT22;10906;45.194;5.684;2023-06-22T13:42:17;26.90;91.10
21489;DHT22;10906;45.194;5.684;2023-06-22T13:45:02;26.80;91.20
21489;DHT22;10906;45.194;5.684;2023-06-22T13:47:46;26.60;91.00
21489;DHT22;10906;45.194;5.684;2023-06-22T13:53:16;25.90;88.10
21489;DHT22;10906;45.194;5.684;2023-06-22T13:56:00;25.60;88.50
21489;DHT22;10906;45.194;5.684;2023-06-22T14:01:28;25.00;86.20
21489;DHT22;10906;45.194;5.684;2023-06-22T14:04:12;24.20;90.10
21489;DHT22;10906;45.194;5.684;2023-06-22T14:06:57;23.10;91.80
21489;DHT22;10906;45.194;5.684;2023-06-22T14:09:41;22.00;93.20
21489;DHT22;10906;45.194;5.684;2023-06-22T14:12:26;20.30;95.70
21489;DHT22;10906;45.194;5.684;2023-06-22T14:15:10;19.10;97.00
21489;DHT22;10906;45.194;5.684;2023-06-22T14:17:55;18.40;99.90
21489;DHT22;10906;45.194;5.684;2023-06-22T14:20:39;17.90;99.90
21489;DHT22;10906;45.194;5.684;2023-06-22T14:23:24;17.80;99.90
21489;DHT22;10906;45.194;5.684;2023-06-22T14:26:09;17.40;99.90
21489;DHT22;10906;45.194;5.684;2023-06-22T14:28:53;17.00;99.90
21489;DHT22;10906;45.194;5.684;2023-06-22T14:31:38;17.00;99.90
21489;DHT22;10906;45.194;5.684;2023-06-22T14:34:22;16.90;99.90
21489;DHT22;10906;45.194;5.684;2023-06-22T14:37:07;17.00;99.90
21489;DHT22;10906;45.194;5.684;2023-06-22T14:39:53;17.00;99.90
21489;DHT22;10906;45.194;5.684;2023-06-22T14:45:22;17.10;99.90
21489;DHT22;10906;45.194;5.684;2023-06-22T14:48:06;17.10;99.90
21489;DHT22;10906;45.194;5.684;2023-06-22T14:50:50;17.10;99.90
21489;DHT22;10906;45.194;5.684;2023-06-22T14:53:35;17.10;99.90
21489;DHT22;10906;45.194;5.684;2023-06-22T14:56:20;17.10;99.90
21489;DHT22;10906;45.194;5.684;2023-06-22T14:59:04;17.20;99.90
21489;DHT22;10906;45.194;5.684;2023-06-22T15:01:48;17.30;99.90
21489;DHT22;10906;45.194;5.684;2023-06-22T15:04:32;17.30;99.90
21489;DHT22;10906;45.194;5.684;2023-06-22T15:07:19;17.40;99.90
21489;DHT22;10906;45.194;5.684;2023-06-22T15:10:04;17.40;99.90
21489;DHT22;10906;45.194;5.684;2023-06-22T15:12:48;17.30;99.90
21489;DHT22;10906;45.194;5.684;2023-06-22T15:15:33;17.30;99.90
21489;DHT22;10906;45.194;5.684;2023-06-22T15:18:17;17.30;99.90
21489;DHT22;10906;45.194;5.684;2023-06-22T15:21:03;17.40;99.90
21489;DHT22;10906;45.194;5.684;2023-06-22T15:23:47;17.50;99.90
21489;DHT22;10906;45.194;5.684;2023-06-22T15:26:32;17.30;99.90
21489;DHT22;10906;45.194;5.684;2023-06-22T15:29:16;17.30;99.90
21489;DHT22;10906;45.194;5.684;2023-06-22T15:32:00;17.20;99.90
21489;DHT22;10906;45.194;5.684;2023-06-22T15:34:44;17.20;99.90
21489;DHT22;10906;45.194;5.684;2023-06-22T15:37:28;17.20;99.90
21489;DHT22;10906;45.194;5.684;2023-06-22T15:40:13;17.20;99.90
21489;DHT22;10906;45.194;5.684;2023-06-22T15:42:57;17.20;99.90
21489;DHT22;10906;45.194;5.684;2023-06-22T15:45:42;17.20;99.90
21489;DHT22;10906;45.194;5.684;2023-06-22T15:48:26;17.10;99.90
21489;DHT22;10906;45.194;5.684;2023-06-22T15:51:10;17.00;99.90
21489;DHT22;10906;45.194;5.684;2023-06-22T15:53:55;17.10;99.90
21489;DHT22;10906;45.194;5.684;2023-06-22T15:56:39;17.10;99.90
21489;DHT22;10906;45.194;5.684;2023-06-22T15:59:23;17.20;99.90
21489;DHT22;10906;45.194;5.684;2023-06-22T16:02:08;17.30;99.90
21489;DHT22;10906;45.194;5.684;2023-06-22T16:04:53;17.40;99.90
21489;DHT22;10906;45.194;5.684;2023-06-22T16:07:38;17.50;99.90
21489;DHT22;10906;45.194;5.684;2023-06-22T16:10:23;17.50;99.90
21489;DHT22;10906;45.194;5.684;2023-06-22T16:13:07;17.70;99.90
21489;DHT22;10906;45.194;5.684;2023-06-22T16:15:51;18.30;99.90
21489;DHT22;10906;45.194;5.684;2023-06-22T16:18:36;18.50;99.90
21489;DHT22;10906;45.194;5.684;2023-06-22T16:21:20;18.60;99.90
21489;DHT22;10906;45.194;5.684;2023-06-22T16:24:06;18.60;99.90
21489;DHT22;10906;45.194;5.684;2023-06-22T16:26:50;18.60;99.90
21489;DHT22;10906;45.194;5.684;2023-06-22T16:29:35;18.70;99.90
21489;DHT22;10906;45.194;5.684;2023-06-22T16:32:20;18.50;99.90
21489;DHT22;10906;45.194;5.684;2023-06-22T16:35:05;18.30;99.90
21489;DHT22;10906;45.194;5.684;2023-06-22T16:37:50;18.20;99.90
21489;DHT22;10906;45.194;5.684;2023-06-22T16:40:34;18.20;99.90
21489;DHT22;10906;45.194;5.684;2023-06-22T16:43:19;18.20;99.90
21489;DHT22;10906;45.194;5.684;2023-06-22T16:46:05;18.10;99.90
21489;DHT22;10906;45.194;5.684;2023-06-22T16:48:49;18.10;99.90
21489;DHT22;10906;45.194;5.684;2023-06-22T16:51:34;18.10;99.90
21489;DHT22;10906;45.194;5.684;2023-06-22T16:54:18;17.90;99.90
21489;DHT22;10906;45.194;5.684;2023-06-22T16:57:03;17.90;99.90
21489;DHT22;10906;45.194;5.684;2023-06-22T16:59:52;18.00;99.90
21489;DHT22;10906;45.194;5.684;2023-06-22T17:02:49;18.10;99.90
21489;DHT22;10906;45.194;5.684;2023-06-22T17:05:34;18.00;99.90
21489;DHT22;10906;45.194;5.684;2023-06-22T17:08:19;17.90;99.90
21489;DHT22;10906;45.194;5.684;2023-06-22T17:11:07;17.80;99.90
21489;DHT22;10906;45.194;5.684;2023-06-22T17:16:37;17.80;99.90
21489;DHT22;10906;45.194;5.684;2023-06-22T17:19:25;17.70;99.90
21489;DHT22;10906;45.194;5.684;2023-06-22T17:22:10;17.70;99.90
21489;DHT22;10906;45.194;5.684;2023-06-22T17:24:54;17.70;99.90
21489;DHT22;10906;45.194;5.684;2023-06-22T17:27:39;17.70;99.90
21489;DHT22;10906;45.194;5.684;2023-06-22T17:33:08;17.60;99.90
21489;DHT22;10906;45.194;5.684;2023-06-22T17:35:55;17.60;99.90
21489;DHT22;10906;45.194;5.684;2023-06-22T17:38:41;17.70;99.90
21489;DHT22;10906;45.194;5.684;2023-06-22T17:41:32;17.70;99.90
21489;DHT22;10906;45.194;5.684;2023-06-22T17:44:25;17.70;99.90
21489;DHT22;10906;45.194;5.684;2023-06-22T17:47:10;17.90;99.90
21489;DHT22;10906;45.194;5.684;2023-06-22T17:50:04;17.70;99.90
21489;DHT22;10906;45.194;5.684;2023-06-22T17:52:52;17.70;99.90
21489;DHT22;10906;45.194;5.684;2023-06-22T17:55:37;17.70;99.90
21489;DHT22;10906;45.194;5.684;2023-06-22T17:58:22;17.80;99.90
21489;DHT22;10906;45.194;5.684;2023-06-22T18:06:43;17.90;99.90
21489;DHT22;10906;45.194;5.684;2023-06-22T18:09:29;17.90;99.90
21489;DHT22;10906;45.194;5.684;2023-06-22T18:12:14;17.90;99.90
21489;DHT22;10906;45.194;5.684;2023-06-22T18:14:59;17.80;99.90
21489;DHT22;10906;45.194;5.684;2023-06-22T18:17:43;17.80;99.90
21489;DHT22;10906;45.194;5.684;2023-06-22T18:20:28;17.80;99.90
21489;DHT22;10906;45.194;5.684;2023-06-22T18:23:13;17.80;99.90
21489;DHT22;10906;45.194;5.684;2023-06-22T18:25:58;17.80;99.90
21489;DHT22;10906;45.194;5.684;2023-06-22T18:28:43;17.80;99.90
21489;DHT22;10906;45.194;5.684;2023-06-22T18:31:28;17.70;99.90
21489;DHT22;10906;45.194;5.684;2023-06-22T18:34:13;17.80;99.90
21489;DHT22;10906;45.194;5.684;2023-06-22T18:36:58;17.80;99.90
21489;DHT22;10906;45.194;5.684;2023-06-22T18:39:45;17.80;99.90
21489;DHT22;10906;45.194;5.684;2023-06-22T18:42:30;17.80;99.90
21489;DHT22;10906;45.194;5.684;2023-06-22T18:45:25;17.80;99.90
21489;DHT22;10906;45.194;5.684;2023-06-22T18:48:09;17.80;99.90
21489;DHT22;10906;45.194;5.684;2023-06-22T18:50:55;17.80;99.90
21489;DHT22;10906;45.194;5.684;2023-06-22T18:54:04;17.80;99.90
21489;DHT22;10906;45.194;5.684;2023-06-22T18:56:55;17.70;99.90
21489;DHT22;10906;45.194;5.684;2023-06-22T18:59:42;17.70;99.90
21489;DHT22;10906;45.194;5.684;2023-06-22T19:05:36;17.70;99.90
21489;DHT22;10906;45.194;5.684;2023-06-22T19:08:21;17.70;99.90
21489;DHT22;10906;45.194;5.684;2023-06-22T19:11:13;17.60;99.90
21489;DHT22;10906;45.194;5.684;2023-06-22T19:13:59;17.60;99.90
21489;DHT22;10906;45.194;5.684;2023-06-22T19:16:46;17.60;99.90
21489;DHT22;10906;45.194;5.684;2023-06-22T19:19:34;17.50;99.90
21489;DHT22;10906;45.194;5.684;2023-06-22T19:22:19;17.40;99.90
21489;DHT22;10906;45.194;5.684;2023-06-22T19:25:04;17.30;99.90
21489;DHT22;10906;45.194;5.684;2023-06-22T19:28:01;17.30;99.90
21489;DHT22;10906;45.194;5.684;2023-06-22T19:30:47;17.40;99.90
21489;DHT22;10906;45.194;5.684;2023-06-22T19:33:32;17.40;99.90
21489;DHT22;10906;45.194;5.684;2023-06-22T19:36:19;17.40;99.90
21489;DHT22;10906;45.194;5.684;2023-06-22T19:39:04;17.40;99.90
21489;DHT22;10906;45.194;5.684;2023-06-22T19:41:50;17.40;99.90
21489;DHT22;10906;45.194;5.684;2023-06-22T19:44:34;17.50;99.90
21489;DHT22;10906;45.194;5.684;2023-06-22T19:47:22;17.50;99.90
21489;DHT22;10906;45.194;5.684;2023-06-22T19:50:06;17.50;99.90
21489;DHT22;10906;45.194;5.684;2023-06-22T19:52:50;17.40;99.90
21489;DHT22;10906;45.194;5.684;2023-06-22T19:55:40;17.30;99.90
21489;DHT22;10906;45.194;5.684;2023-06-22T19:58:26;17.40;99.90
21489;DHT22;10906;45.194;5.684;2023-06-22T20:03:55;17.50;99.90
21489;DHT22;10906;45.194;5.684;2023-06-22T20:09:25;17.60;99.90
21489;DHT22;10906;45.194;5.684;2023-06-22T20:12:22;17.80;99.90
21489;DHT22;10906;45.194;5.684;2023-06-22T20:15:22;17.80;99.90
21489;DHT22;10906;45.194;5.684;2023-06-22T20:18:09;17.90;99.90
21489;DHT22;10906;45.194;5.684;2023-06-22T20:20:54;17.80;99.90
21489;DHT22;10906;45.194;5.684;2023-06-22T20:23:42;17.80;99.90
21489;DHT22;10906;45.194;5.684;2023-06-22T20:26:26;17.70;99.90
21489;DHT22;10906;45.194;5.684;2023-06-22T20:29:31;17.60;99.90
21489;DHT22;10906;45.194;5.684;2023-06-22T20:32:17;17.60;99.90
21489;DHT22;10906;45.194;5.684;2023-06-22T20:35:02;17.60;99.90
21489;DHT22;10906;45.194;5.684;2023-06-22T20:40:33;17.80;99.90
21489;DHT22;10906;45.194;5.684;2023-06-22T20:43:17;17.90;99.90
21489;DHT22;10906;45.194;5.684;2023-06-22T20:46:02;17.90;99.90
21489;DHT22;10906;45.194;5.684;2023-06-22T20:48:46;17.80;99.90
21489;DHT22;10906;45.194;5.684;2023-06-22T20:51:30;17.80;99.90
21489;DHT22;10906;45.194;5.684;2023-06-22T20:54:18;17.90;99.90
21489;DHT22;10906;45.194;5.684;2023-06-22T20:57:03;17.80;99.90
21489;DHT22;10906;45.194;5.684;2023-06-22T20:59:47;17.80;99.90
21489;DHT22;10906;45.194;5.684;2023-06-22T21:02:32;17.70;99.90
21489;DHT22;10906;45.194;5.684;2023-06-22T21:05:19;17.70;99.90
21489;DHT22;10906;45.194;5.684;2023-06-22T21:08:04;17.80;99.90
21489;DHT22;10906;45.194;5.684;2023-06-22T21:10:49;17.80;99.90
21489;DHT22;10906;45.194;5.684;2023-06-22T21:13:35;17.80;99.90
21489;DHT22;10906;45.194;5.684;2023-06-22T21:16:20;17.70;99.90
21489;DHT22;10906;45.194;5.684;2023-06-22T21:19:04;17.80;99.90
21489;DHT22;10906;45.194;5.684;2023-06-22T21:21:49;17.90;99.90
21489;DHT22;10906;45.194;5.684;2023-06-22T21:24:33;18.00;99.90
21489;DHT22;10906;45.194;5.684;2023-06-22T21:27:18;18.10;99.90
21489;DHT22;10906;45.194;5.684;2023-06-22T21:30:02;18.10;99.90
21489;DHT22;10906;45.194;5.684;2023-06-22T21:32:46;18.10;99.90
21489;DHT22;10906;45.194;5.684;2023-06-22T21:35:31;18.10;99.90
21489;DHT22;10906;45.194;5.684;2023-06-22T21:38:15;18.20;99.90
21489;DHT22;10906;45.194;5.684;2023-06-22T21:46:31;18.20;99.90
21489;DHT22;10906;45.194;5.684;2023-06-22T21:49:16;18.20;99.90
21489;DHT22;10906;45.194;5.684;2023-06-22T21:52:01;18.20;99.90
21489;DHT22;10906;45.194;5.684;2023-06-22T21:57:31;18.10;99.90
